sensor_id;sensor_type;location;lat;lon;timestamp;temperature;humidity
68274;SHT30;55104;47.356;19.448;2023-08-07T00:01:26;15.52;79.41
68274;SHT30;55104;47.356;19.448;2023-08-07T00:04:29;15.49;79.25
68274;SHT30;55104;47.356;19.448;2023-08-07T00:07:32;15.55;78.92
68274;SHT30;55104;47.356;19.448;2023-08-07T00:10:34;15.49;79.20
68274;SHT30;55104;47.356;19.448;2023-08-07T00:13:36;15.46;79.31
68274;SHT30;55104;47.356;19.448;2023-08-07T00:16:38;15.45;79.46
68274;SHT30;55104;47.356;19.448;2023-08-07T00:19:41;15.42;79.58
68274;SHT30;55104;47.356;19.448;2023-08-07T00:22:43;15.41;79.85
68274;SHT30;55104;47.356;19.448;2023-08-07T00:25:45;15.36;79.79
68274;SHT30;55104;47.356;19.448;2023-08-07T00:28:47;15.41;79.90
68274;SHT30;55104;47.356;19.448;2023-08-07T00:31:49;15.35;79.81
68274;SHT30;55104;47.356;19.448;2023-08-07T00:34:51;15.34;80.31
68274;SHT30;55104;47.356;19.448;2023-08-07T00:37:53;15.27;80.82
68274;SHT30;55104;47.356;19.448;2023-08-07T00:40:56;15.23;80.48
68274;SHT30;55104;47.356;19.448;2023-08-07T00:43:58;15.25;80.62
68274;SHT30;55104;47.356;19.448;2023-08-07T00:47:00;15.21;81.13
68274;SHT30;55104;47.356;19.448;2023-08-07T00:50:02;15.20;81.07
68274;SHT30;55104;47.356;19.448;2023-08-07T00:53:06;15.12;81.30
68274;SHT30;55104;47.356;19.448;2023-08-07T00:56:08;15.16;81.17
68274;SHT30;55104;47.356;19.448;2023-08-07T00:59:10;15.17;81.49
68274;SHT30;55104;47.356;19.448;2023-08-07T01:02:14;15.12;81.38
68274;SHT30;55104;47.356;19.448;2023-08-07T01:05:17;15.08;81.93
68274;SHT30;55104;47.356;19.448;2023-08-07T01:08:20;15.08;81.92
68274;SHT30;55104;47.356;19.448;2023-08-07T01:11:36;14.97;82.19
68274;SHT30;55104;47.356;19.448;2023-08-07T01:14:49;14.94;82.44
68274;SHT30;55104;47.356;19.448;2023-08-07T01:17:54;14.91;82.53
68274;SHT30;55104;47.356;19.448;2023-08-07T01:20:57;14.89;82.82
68274;SHT30;55104;47.356;19.448;2023-08-07T01:23:59;14.80;83.04
68274;SHT30;55104;47.356;19.448;2023-08-07T01:30:41;14.81;83.08
68274;SHT30;55104;47.356;19.448;2023-08-07T01:34:05;14.86;82.99
68274;SHT30;55104;47.356;19.448;2023-08-07T01:37:11;14.90;82.70
68274;SHT30;55104;47.356;19.448;2023-08-07T01:40:15;14.98;81.99
68274;SHT30;55104;47.356;19.448;2023-08-07T01:43:18;15.08;81.67
68274;SHT30;55104;47.356;19.448;2023-08-07T01:46:21;15.08;81.22
68274;SHT30;55104;47.356;19.448;2023-08-07T01:49:23;15.11;81.50
68274;SHT30;55104;47.356;19.448;2023-08-07T01:52:26;15.08;81.47
68274;SHT30;55104;47.356;19.448;2023-08-07T01:55:28;15.01;81.88
68274;SHT30;55104;47.356;19.448;2023-08-07T01:58:30;15.10;81.33
68274;SHT30;55104;47.356;19.448;2023-08-07T02:01:32;15.06;81.54
68274;SHT30;55104;47.356;19.448;2023-08-07T02:04:34;15.07;81.20
68274;SHT30;55104;47.356;19.448;2023-08-07T02:07:36;15.07;81.32
68274;SHT30;55104;47.356;19.448;2023-08-07T02:10:38;15.12;80.74
68274;SHT30;55104;47.356;19.448;2023-08-07T02:13:40;15.14;80.96
68274;SHT30;55104;47.356;19.448;2023-08-07T02:16:42;15.12;80.52
68274;SHT30;55104;47.356;19.448;2023-08-07T02:19:44;15.11;80.74
68274;SHT30;55104;47.356;19.448;2023-08-07T02:22:46;15.14;80.41
68274;SHT30;55104;47.356;19.448;2023-08-07T02:25:49;15.18;80.26
68274;SHT30;55104;47.356;19.448;2023-08-07T02:28:51;15.23;79.99
68274;SHT30;55104;47.356;19.448;2023-08-07T02:31:53;15.14;80.40
68274;SHT30;55104;47.356;19.448;2023-08-07T02:34:56;15.12;80.08
68274;SHT30;55104;47.356;19.448;2023-08-07T02:37:58;15.17;79.78
68274;SHT30;55104;47.356;19.448;2023-08-07T02:41:00;15.20;79.54
68274;SHT30;55104;47.356;19.448;2023-08-07T02:44:02;15.24;79.20
68274;SHT30;55104;47.356;19.448;2023-08-07T02:47:05;15.17;79.43
68274;SHT30;55104;47.356;19.448;2023-08-07T02:50:07;15.14;79.72
68274;SHT30;55104;47.356;19.448;2023-08-07T02:53:09;15.11;79.55
68274;SHT30;55104;47.356;19.448;2023-08-07T02:56:11;15.16;79.34
68274;SHT30;55104;47.356;19.448;2023-08-07T02:59:14;15.11;79.05
68274;SHT30;55104;47.356;19.448;2023-08-07T03:02:16;15.07;79.74
68274;SHT30;55104;47.356;19.448;2023-08-07T03:05:18;14.93;80.01
68274;SHT30;55104;47.356;19.448;2023-08-07T03:08:20;14.89;79.83
68274;SHT30;55104;47.356;19.448;2023-08-07T03:11:22;14.93;79.58
68274;SHT30;55104;47.356;19.448;2023-08-07T03:14:24;14.90;79.51
68274;SHT30;55104;47.356;19.448;2023-08-07T03:17:26;14.87;79.85
68274;SHT30;55104;47.356;19.448;2023-08-07T03:20:29;14.80;80.29
68274;SHT30;55104;47.356;19.448;2023-08-07T03:23:31;14.81;79.79
68274;SHT30;55104;47.356;19.448;2023-08-07T03:26:36;14.77;80.12
68274;SHT30;55104;47.356;19.448;2023-08-07T03:29:39;14.76;80.04
68274;SHT30;55104;47.356;19.448;2023-08-07T03:32:41;14.69;80.36
68274;SHT30;55104;47.356;19.448;2023-08-07T03:35:46;14.69;80.56
68274;SHT30;55104;47.356;19.448;2023-08-07T03:38:48;14.72;80.03
68274;SHT30;55104;47.356;19.448;2023-08-07T03:41:50;14.65;80.23
68274;SHT30;55104;47.356;19.448;2023-08-07T03:44:53;14.69;80.31
68274;SHT30;55104;47.356;19.448;2023-08-07T03:47:55;14.65;80.28
68274;SHT30;55104;47.356;19.448;2023-08-07T03:51:05;14.70;79.92
68274;SHT30;55104;47.356;19.448;2023-08-07T03:54:12;14.70;80.07
68274;SHT30;55104;47.356;19.448;2023-08-07T03:57:14;14.70;80.06
68274;SHT30;55104;47.356;19.448;2023-08-07T04:00:16;14.68;80.41
68274;SHT30;55104;47.356;19.448;2023-08-07T04:03:23;14.75;80.41
68274;SHT30;55104;47.356;19.448;2023-08-07T04:06:25;14.69;80.25
68274;SHT30;55104;47.356;19.448;2023-08-07T04:09:28;14.80;79.60
68274;SHT30;55104;47.356;19.448;2023-08-07T04:12:31;14.81;79.53
68274;SHT30;55104;47.356;19.448;2023-08-07T04:15:33;14.84;79.53
68274;SHT30;55104;47.356;19.448;2023-08-07T04:18:36;14.97;79.02
68274;SHT30;55104;47.356;19.448;2023-08-07T04:21:38;15.04;78.38
68274;SHT30;55104;47.356;19.448;2023-08-07T04:24:40;15.01;79.05
68274;SHT30;55104;47.356;19.448;2023-08-07T04:27:42;15.06;78.65
68274;SHT30;55104;47.356;19.448;2023-08-07T04:30:45;15.12;78.56
68274;SHT30;55104;47.356;19.448;2023-08-07T04:33:47;15.12;78.54
68274;SHT30;55104;47.356;19.448;2023-08-07T04:36:49;15.21;78.28
68274;SHT30;55104;47.356;19.448;2023-08-07T04:39:53;15.28;77.67
68274;SHT30;55104;47.356;19.448;2023-08-07T04:42:56;15.31;76.86
68274;SHT30;55104;47.356;19.448;2023-08-07T04:45:59;15.41;77.49
68274;SHT30;55104;47.356;19.448;2023-08-07T04:49:02;15.45;76.22
68274;SHT30;55104;47.356;19.448;2023-08-07T04:52:04;15.48;76.25
68274;SHT30;55104;47.356;19.448;2023-08-07T04:55:21;15.59;76.38
68274;SHT30;55104;47.356;19.448;2023-08-07T04:58:23;15.62;75.75
68274;SHT30;55104;47.356;19.448;2023-08-07T05:01:25;15.72;76.25
68274;SHT30;55104;47.356;19.448;2023-08-07T05:04:27;15.72;76.23
68274;SHT30;55104;47.356;19.448;2023-08-07T05:07:29;15.79;75.61
68274;SHT30;55104;47.356;19.448;2023-08-07T05:10:31;15.89;75.39
68274;SHT30;55104;47.356;19.448;2023-08-07T05:13:33;15.94;74.70
68274;SHT30;55104;47.356;19.448;2023-08-07T05:16:35;16.01;74.58
68274;SHT30;55104;47.356;19.448;2023-08-07T05:19:37;16.04;75.10
68274;SHT30;55104;47.356;19.448;2023-08-07T05:22:39;16.17;74.18
68274;SHT30;55104;47.356;19.448;2023-08-07T05:25:41;16.27;73.48
68274;SHT30;55104;47.356;19.448;2023-08-07T05:28:47;16.32;73.05
68274;SHT30;55104;47.356;19.448;2023-08-07T05:31:49;16.51;73.07
68274;SHT30;55104;47.356;19.448;2023-08-07T05:34:52;16.59;72.87
68274;SHT30;55104;47.356;19.448;2023-08-07T05:37:54;16.73;72.65
68274;SHT30;55104;47.356;19.448;2023-08-07T05:40:56;16.84;72.96
68274;SHT30;55104;47.356;19.448;2023-08-07T05:43:58;16.99;72.79
68274;SHT30;55104;47.356;19.448;2023-08-07T05:47:00;17.11;71.48
68274;SHT30;55104;47.356;19.448;2023-08-07T05:50:02;17.11;70.54
68274;SHT30;55104;47.356;19.448;2023-08-07T05:53:04;17.18;71.71
68274;SHT30;55104;47.356;19.448;2023-08-07T05:56:06;17.32;70.25
68274;SHT30;55104;47.356;19.448;2023-08-07T05:59:08;17.49;70.41
68274;SHT30;55104;47.356;19.448;2023-08-07T06:02:11;17.61;69.62
68274;SHT30;55104;47.356;19.448;2023-08-07T06:05:13;17.85;68.39
68274;SHT30;55104;47.356;19.448;2023-08-07T06:08:16;18.21;68.10
68274;SHT30;55104;47.356;19.448;2023-08-07T06:11:19;18.44;66.25
68274;SHT30;55104;47.356;19.448;2023-08-07T06:14:20;18.71;65.16
68274;SHT30;55104;47.356;19.448;2023-08-07T06:17:23;19.11;65.64
68274;SHT30;55104;47.356;19.448;2023-08-07T06:20:25;19.09;64.48
68274;SHT30;55104;47.356;19.448;2023-08-07T06:23:27;18.95;63.65
68274;SHT30;55104;47.356;19.448;2023-08-07T06:26:29;18.62;64.87
68274;SHT30;55104;47.356;19.448;2023-08-07T06:29:31;18.49;65.20
68274;SHT30;55104;47.356;19.448;2023-08-07T06:32:33;18.38;64.31
68274;SHT30;55104;47.356;19.448;2023-08-07T06:35:39;18.37;65.20
68274;SHT30;55104;47.356;19.448;2023-08-07T06:38:41;18.44;63.82
68274;SHT30;55104;47.356;19.448;2023-08-07T06:41:43;18.82;64.48
68274;SHT30;55104;47.356;19.448;2023-08-07T06:44:47;18.93;62.92
68274;SHT30;55104;47.356;19.448;2023-08-07T06:47:49;18.95;62.78
68274;SHT30;55104;47.356;19.448;2023-08-07T06:50:52;18.95;63.67
68274;SHT30;55104;47.356;19.448;2023-08-07T06:53:54;18.95;62.97
68274;SHT30;55104;47.356;19.448;2023-08-07T06:56:56;18.96;63.16
68274;SHT30;55104;47.356;19.448;2023-08-07T06:59:58;19.13;62.71
68274;SHT30;55104;47.356;19.448;2023-08-07T07:03:00;18.73;61.82
68274;SHT30;55104;47.356;19.448;2023-08-07T07:06:02;18.65;63.65
68274;SHT30;55104;47.356;19.448;2023-08-07T07:09:04;18.82;62.29
68274;SHT30;55104;47.356;19.448;2023-08-07T07:12:07;18.72;63.26
68274;SHT30;55104;47.356;19.448;2023-08-07T07:15:09;18.56;61.99
68274;SHT30;55104;47.356;19.448;2023-08-07T07:18:11;18.48;62.99
68274;SHT30;55104;47.356;19.448;2023-08-07T07:21:13;18.56;63.12
68274;SHT30;55104;47.356;19.448;2023-08-07T07:24:16;18.40;62.06
68274;SHT30;55104;47.356;19.448;2023-08-07T07:27:18;18.27;64.16
68274;SHT30;55104;47.356;19.448;2023-08-07T07:30:23;18.56;63.84
68274;SHT30;55104;47.356;19.448;2023-08-07T07:33:25;18.58;63.16
68274;SHT30;55104;47.356;19.448;2023-08-07T07:36:28;18.62;62.64
68274;SHT30;55104;47.356;19.448;2023-08-07T07:39:30;18.56;62.69
68274;SHT30;55104;47.356;19.448;2023-08-07T07:42:33;19.04;63.14
68274;SHT30;55104;47.356;19.448;2023-08-07T07:45:35;18.79;63.03
68274;SHT30;55104;47.356;19.448;2023-08-07T07:48:38;18.98;62.63
68274;SHT30;55104;47.356;19.448;2023-08-07T07:51:40;19.48;61.24
68274;SHT30;55104;47.356;19.448;2023-08-07T07:54:42;19.46;60.49
68274;SHT30;55104;47.356;19.448;2023-08-07T07:57:44;19.81;60.87
68274;SHT30;55104;47.356;19.448;2023-08-07T08:00:47;19.66;58.81
68274;SHT30;55104;47.356;19.448;2023-08-07T08:03:49;20.02;58.74
68274;SHT30;55104;47.356;19.448;2023-08-07T08:06:51;20.52;57.98
68274;SHT30;55104;47.356;19.448;2023-08-07T08:09:53;19.85;57.02
68274;SHT30;55104;47.356;19.448;2023-08-07T08:12:55;19.87;59.19
68274;SHT30;55104;47.356;19.448;2023-08-07T08:15:58;19.86;58.54
68274;SHT30;55104;47.356;19.448;2023-08-07T08:19:00;19.61;58.33
68274;SHT30;55104;47.356;19.448;2023-08-07T08:22:02;19.59;59.07
68274;SHT30;55104;47.356;19.448;2023-08-07T08:25:04;19.92;58.29
68274;SHT30;55104;47.356;19.448;2023-08-07T08:28:06;20.13;57.14
68274;SHT30;55104;47.356;19.448;2023-08-07T08:31:08;20.19;57.63
68274;SHT30;55104;47.356;19.448;2023-08-07T08:34:10;20.44;57.75
68274;SHT30;55104;47.356;19.448;2023-08-07T08:37:12;20.45;57.11
68274;SHT30;55104;47.356;19.448;2023-08-07T08:40:15;20.65;56.14
68274;SHT30;55104;47.356;19.448;2023-08-07T08:43:19;20.69;55.74
68274;SHT30;55104;47.356;19.448;2023-08-07T08:46:24;20.51;56.36
68274;SHT30;55104;47.356;19.448;2023-08-07T08:49:33;20.79;56.23
68274;SHT30;55104;47.356;19.448;2023-08-07T08:52:38;20.85;56.83
68274;SHT30;55104;47.356;19.448;2023-08-07T08:55:40;20.63;55.50
68274;SHT30;55104;47.356;19.448;2023-08-07T08:58:45;20.41;56.14
68274;SHT30;55104;47.356;19.448;2023-08-07T09:01:51;20.54;57.25
68274;SHT30;55104;47.356;19.448;2023-08-07T09:04:53;21.00;55.67
68274;SHT30;55104;47.356;19.448;2023-08-07T09:07:55;21.33;57.28
68274;SHT30;55104;47.356;19.448;2023-08-07T09:10:58;21.55;54.18
68274;SHT30;55104;47.356;19.448;2023-08-07T09:14:01;21.61;54.04
68274;SHT30;55104;47.356;19.448;2023-08-07T09:17:05;21.75;54.14
68274;SHT30;55104;47.356;19.448;2023-08-07T09:20:07;21.07;54.39
68274;SHT30;55104;47.356;19.448;2023-08-07T09:23:15;21.12;55.42
68274;SHT30;55104;47.356;19.448;2023-08-07T09:26:22;21.02;53.72
68274;SHT30;55104;47.356;19.448;2023-08-07T09:29:26;21.39;55.00
68274;SHT30;55104;47.356;19.448;2023-08-07T09:32:28;21.84;54.85
68274;SHT30;55104;47.356;19.448;2023-08-07T09:35:31;22.08;54.74
68274;SHT30;55104;47.356;19.448;2023-08-07T09:38:35;21.98;53.30
68274;SHT30;55104;47.356;19.448;2023-08-07T09:41:37;21.73;54.19
68274;SHT30;55104;47.356;19.448;2023-08-07T09:44:39;22.03;54.31
68274;SHT30;55104;47.356;19.448;2023-08-07T09:47:41;21.57;53.23
68274;SHT30;55104;47.356;19.448;2023-08-07T09:50:45;21.22;53.73
68274;SHT30;55104;47.356;19.448;2023-08-07T09:53:47;21.31;53.96
68274;SHT30;55104;47.356;19.448;2023-08-07T09:56:50;21.73;54.85
68274;SHT30;55104;47.356;19.448;2023-08-07T10:00:00;21.27;53.35
68274;SHT30;55104;47.356;19.448;2023-08-07T10:03:13;20.67;54.92
68274;SHT30;55104;47.356;19.448;2023-08-07T10:06:16;20.79;54.04
68274;SHT30;55104;47.356;19.448;2023-08-07T10:09:21;21.10;53.21
68274;SHT30;55104;47.356;19.448;2023-08-07T10:12:23;21.24;53.07
68274;SHT30;55104;47.356;19.448;2023-08-07T10:15:26;21.77;53.20
68274;SHT30;55104;47.356;19.448;2023-08-07T10:18:28;22.06;53.25
68274;SHT30;55104;47.356;19.448;2023-08-07T10:21:30;21.07;52.05
68274;SHT30;55104;47.356;19.448;2023-08-07T10:24:34;21.30;53.73
68274;SHT30;55104;47.356;19.448;2023-08-07T10:27:38;21.96;54.44
68274;SHT30;55104;47.356;19.448;2023-08-07T10:30:41;21.59;52.06
68274;SHT30;55104;47.356;19.448;2023-08-07T10:33:44;21.06;53.00
68274;SHT30;55104;47.356;19.448;2023-08-07T10:36:46;21.30;55.17
68274;SHT30;55104;47.356;19.448;2023-08-07T10:40:04;21.19;53.52
68274;SHT30;55104;47.356;19.448;2023-08-07T10:46:10;21.53;53.95
68274;SHT30;55104;47.356;19.448;2023-08-07T10:52:38;21.41;53.98
68274;SHT30;55104;47.356;19.448;2023-08-07T10:55:47;21.81;54.32
68274;SHT30;55104;47.356;19.448;2023-08-07T10:58:50;21.40;53.38
68274;SHT30;55104;47.356;19.448;2023-08-07T11:01:54;21.55;53.82
68274;SHT30;55104;47.356;19.448;2023-08-07T11:04:57;21.16;52.31
68274;SHT30;55104;47.356;19.448;2023-08-07T11:07:59;20.88;53.74
68274;SHT30;55104;47.356;19.448;2023-08-07T11:11:05;21.06;52.93
68274;SHT30;55104;47.356;19.448;2023-08-07T11:14:09;21.23;52.89
68274;SHT30;55104;47.356;19.448;2023-08-07T11:17:12;21.14;52.38
68274;SHT30;55104;47.356;19.448;2023-08-07T11:20:14;21.18;53.94
68274;SHT30;55104;47.356;19.448;2023-08-07T11:23:22;21.30;53.90
68274;SHT30;55104;47.356;19.448;2023-08-07T11:26:25;21.50;53.35
68274;SHT30;55104;47.356;19.448;2023-08-07T11:29:29;20.88;55.55
68274;SHT30;55104;47.356;19.448;2023-08-07T11:32:32;21.00;54.56
68274;SHT30;55104;47.356;19.448;2023-08-07T11:35:35;21.18;54.15
68274;SHT30;55104;47.356;19.448;2023-08-07T11:38:41;20.92;55.05
68274;SHT30;55104;47.356;19.448;2023-08-07T11:41:47;20.99;55.68
68274;SHT30;55104;47.356;19.448;2023-08-07T11:44:49;20.78;55.97
68274;SHT30;55104;47.356;19.448;2023-08-07T11:47:52;20.84;55.50
68274;SHT30;55104;47.356;19.448;2023-08-07T11:50:58;20.92;56.28
68274;SHT30;55104;47.356;19.448;2023-08-07T11:54:01;20.27;56.00
68274;SHT30;55104;47.356;19.448;2023-08-07T11:57:03;19.86;57.67
68274;SHT30;55104;47.356;19.448;2023-08-07T12:00:16;20.00;58.35
68274;SHT30;55104;47.356;19.448;2023-08-07T12:03:29;20.17;59.17
68274;SHT30;55104;47.356;19.448;2023-08-07T12:06:32;20.21;59.25
68274;SHT30;55104;47.356;19.448;2023-08-07T12:09:34;20.06;57.93
68274;SHT30;55104;47.356;19.448;2023-08-07T12:12:37;20.16;57.33
68274;SHT30;55104;47.356;19.448;2023-08-07T12:15:39;20.41;58.40
68274;SHT30;55104;47.356;19.448;2023-08-07T12:18:47;20.67;56.04
68274;SHT30;55104;47.356;19.448;2023-08-07T12:21:50;20.65;56.83
68274;SHT30;55104;47.356;19.448;2023-08-07T12:24:52;20.67;56.59
68274;SHT30;55104;47.356;19.448;2023-08-07T12:27:55;19.97;58.45
68274;SHT30;55104;47.356;19.448;2023-08-07T12:30:57;19.85;58.72
68274;SHT30;55104;47.356;19.448;2023-08-07T12:34:00;19.38;59.37
68274;SHT30;55104;47.356;19.448;2023-08-07T12:37:22;19.62;59.66
68274;SHT30;55104;47.356;19.448;2023-08-07T12:40:24;19.00;60.63
68274;SHT30;55104;47.356;19.448;2023-08-07T12:43:29;19.03;61.86
68274;SHT30;55104;47.356;19.448;2023-08-07T12:46:32;18.71;60.80
68274;SHT30;55104;47.356;19.448;2023-08-07T12:49:37;18.79;61.67
68274;SHT30;55104;47.356;19.448;2023-08-07T12:52:39;18.58;61.22
68274;SHT30;55104;47.356;19.448;2023-08-07T12:55:41;18.66;61.90
68274;SHT30;55104;47.356;19.448;2023-08-07T12:58:43;18.61;62.14
68274;SHT30;55104;47.356;19.448;2023-08-07T13:01:47;18.49;61.24
68274;SHT30;55104;47.356;19.448;2023-08-07T13:04:49;18.52;62.37
68274;SHT30;55104;47.356;19.448;2023-08-07T13:07:52;18.95;61.84
68274;SHT30;55104;47.356;19.448;2023-08-07T13:10:56;19.35;59.70
68274;SHT30;55104;47.356;19.448;2023-08-07T13:13:58;19.96;59.67
68274;SHT30;55104;47.356;19.448;2023-08-07T13:17:00;19.44;58.92
68274;SHT30;55104;47.356;19.448;2023-08-07T13:20:03;19.32;60.40
68274;SHT30;55104;47.356;19.448;2023-08-07T13:23:12;19.20;60.55
68274;SHT30;55104;47.356;19.448;2023-08-07T13:26:14;19.07;60.91
68274;SHT30;55104;47.356;19.448;2023-08-07T13:29:17;19.07;61.01
68274;SHT30;55104;47.356;19.448;2023-08-07T13:32:19;19.06;61.32
68274;SHT30;55104;47.356;19.448;2023-08-07T13:35:22;19.09;61.06
68274;SHT30;55104;47.356;19.448;2023-08-07T13:38:24;18.95;60.67
68274;SHT30;55104;47.356;19.448;2023-08-07T13:41:26;18.89;61.39
68274;SHT30;55104;47.356;19.448;2023-08-07T13:44:29;19.46;61.44
68274;SHT30;55104;47.356;19.448;2023-08-07T13:47:31;19.72;59.42
68274;SHT30;55104;47.356;19.448;2023-08-07T13:50:33;19.51;60.26
68274;SHT30;55104;47.356;19.448;2023-08-07T13:53:35;19.90;60.58
68274;SHT30;55104;47.356;19.448;2023-08-07T13:56:37;19.74;59.56
68274;SHT30;55104;47.356;19.448;2023-08-07T13:59:39;19.47;59.81
68274;SHT30;55104;47.356;19.448;2023-08-07T14:02:41;19.21;60.60
68274;SHT30;55104;47.356;19.448;2023-08-07T14:05:44;18.85;61.71
68274;SHT30;55104;47.356;19.448;2023-08-07T14:08:46;18.40;62.92
68274;SHT30;55104;47.356;19.448;2023-08-07T14:11:49;18.38;63.31
68274;SHT30;55104;47.356;19.448;2023-08-07T14:14:53;18.38;62.99
68274;SHT30;55104;47.356;19.448;2023-08-07T14:17:56;18.33;63.11
68274;SHT30;55104;47.356;19.448;2023-08-07T14:20:59;18.82;63.41
68274;SHT30;55104;47.356;19.448;2023-08-07T14:24:05;18.83;63.47
68274;SHT30;55104;47.356;19.448;2023-08-07T14:27:07;18.62;63.62
68274;SHT30;55104;47.356;19.448;2023-08-07T14:30:09;18.55;63.96
68274;SHT30;55104;47.356;19.448;2023-08-07T14:33:12;18.34;64.37
68274;SHT30;55104;47.356;19.448;2023-08-07T14:36:14;18.24;64.05
68274;SHT30;55104;47.356;19.448;2023-08-07T14:39:16;18.26;64.30
68274;SHT30;55104;47.356;19.448;2023-08-07T14:42:18;18.30;65.02
68274;SHT30;55104;47.356;19.448;2023-08-07T14:45:21;18.20;65.25
68274;SHT30;55104;47.356;19.448;2023-08-07T14:48:24;18.06;65.41
68274;SHT30;55104;47.356;19.448;2023-08-07T14:51:26;17.85;65.19
68274;SHT30;55104;47.356;19.448;2023-08-07T14:54:28;17.97;65.79
68274;SHT30;55104;47.356;19.448;2023-08-07T14:57:32;17.79;65.51
68274;SHT30;55104;47.356;19.448;2023-08-07T15:00:35;17.72;66.07
68274;SHT30;55104;47.356;19.448;2023-08-07T15:03:37;17.48;66.56
68274;SHT30;55104;47.356;19.448;2023-08-07T15:06:39;17.45;67.05
68274;SHT30;55104;47.356;19.448;2023-08-07T15:09:42;17.30;67.42
68274;SHT30;55104;47.356;19.448;2023-08-07T15:12:45;17.06;67.72
68274;SHT30;55104;47.356;19.448;2023-08-07T15:15:47;17.02;68.24
68274;SHT30;55104;47.356;19.448;2023-08-07T15:18:49;17.09;69.52
68274;SHT30;55104;47.356;19.448;2023-08-07T15:21:51;17.06;68.62
68274;SHT30;55104;47.356;19.448;2023-08-07T15:24:53;16.84;69.70
68274;SHT30;55104;47.356;19.448;2023-08-07T15:27:55;16.62;69.45
68274;SHT30;55104;47.356;19.448;2023-08-07T15:31:02;16.73;70.03
68274;SHT30;55104;47.356;19.448;2023-08-07T15:34:04;16.90;69.98
68274;SHT30;55104;47.356;19.448;2023-08-07T15:37:07;16.82;69.90
68274;SHT30;55104;47.356;19.448;2023-08-07T15:40:10;16.75;70.80
68274;SHT30;55104;47.356;19.448;2023-08-07T15:43:12;16.84;70.73
68274;SHT30;55104;47.356;19.448;2023-08-07T15:46:14;16.94;71.18
68274;SHT30;55104;47.356;19.448;2023-08-07T15:49:16;16.87;70.77
68274;SHT30;55104;47.356;19.448;2023-08-07T15:52:18;16.68;71.71
68274;SHT30;55104;47.356;19.448;2023-08-07T15:55:21;16.69;71.19
68274;SHT30;55104;47.356;19.448;2023-08-07T15:58:23;16.62;71.04
68274;SHT30;55104;47.356;19.448;2023-08-07T16:01:25;16.51;72.24
68274;SHT30;55104;47.356;19.448;2023-08-07T16:04:27;16.41;72.86
68274;SHT30;55104;47.356;19.448;2023-08-07T16:07:29;16.37;73.32
68274;SHT30;55104;47.356;19.448;2023-08-07T16:10:32;16.32;73.55
68274;SHT30;55104;47.356;19.448;2023-08-07T16:13:34;16.49;73.28
68274;SHT30;55104;47.356;19.448;2023-08-07T16:16:36;16.61;72.90
68274;SHT30;55104;47.356;19.448;2023-08-07T16:19:40;16.63;72.99
68274;SHT30;55104;47.356;19.448;2023-08-07T16:22:43;16.49;73.58
68274;SHT30;55104;47.356;19.448;2023-08-07T16:25:45;16.63;73.45
68274;SHT30;55104;47.356;19.448;2023-08-07T16:28:47;16.54;73.19
68274;SHT30;55104;47.356;19.448;2023-08-07T16:31:49;16.41;73.78
68274;SHT30;55104;47.356;19.448;2023-08-07T16:34:54;16.42;73.47
68274;SHT30;55104;47.356;19.448;2023-08-07T16:37:56;16.41;74.39
68274;SHT30;55104;47.356;19.448;2023-08-07T16:40:58;16.35;74.31
68274;SHT30;55104;47.356;19.448;2023-08-07T16:44:00;16.25;74.39
68274;SHT30;55104;47.356;19.448;2023-08-07T16:47:02;16.31;74.16
68274;SHT30;55104;47.356;19.448;2023-08-07T16:50:05;16.40;74.18
68274;SHT30;55104;47.356;19.448;2023-08-07T16:53:08;16.35;73.91
68274;SHT30;55104;47.356;19.448;2023-08-07T16:56:11;16.37;73.82
68274;SHT30;55104;47.356;19.448;2023-08-07T16:59:13;16.28;73.77
68274;SHT30;55104;47.356;19.448;2023-08-07T17:02:16;16.35;74.34
68274;SHT30;55104;47.356;19.448;2023-08-07T17:05:21;16.31;74.08
68274;SHT30;55104;47.356;19.448;2023-08-07T17:08:23;16.32;74.38
68274;SHT30;55104;47.356;19.448;2023-08-07T17:11:25;16.40;74.25
68274;SHT30;55104;47.356;19.448;2023-08-07T17:14:30;16.35;74.54
68274;SHT30;55104;47.356;19.448;2023-08-07T17:17:32;16.34;74.67
68274;SHT30;55104;47.356;19.448;2023-08-07T17:20:34;16.20;75.31
68274;SHT30;55104;47.356;19.448;2023-08-07T17:23:36;16.22;75.45
68274;SHT30;55104;47.356;19.448;2023-08-07T17:26:38;16.11;75.48
68274;SHT30;55104;47.356;19.448;2023-08-07T17:29:40;16.07;75.50
68274;SHT30;55104;47.356;19.448;2023-08-07T17:32:42;15.99;75.87
68274;SHT30;55104;47.356;19.448;2023-08-07T17:35:45;15.96;76.13
68274;SHT30;55104;47.356;19.448;2023-08-07T17:38:47;15.94;76.77
68274;SHT30;55104;47.356;19.448;2023-08-07T17:41:49;15.87;76.71
68274;SHT30;55104;47.356;19.448;2023-08-07T17:44:51;15.85;76.95
68274;SHT30;55104;47.356;19.448;2023-08-07T17:47:53;15.78;76.98
68274;SHT30;55104;47.356;19.448;2023-08-07T17:50:55;15.83;76.87
68274;SHT30;55104;47.356;19.448;2023-08-07T17:53:58;15.78;76.91
68274;SHT30;55104;47.356;19.448;2023-08-07T17:57:00;15.79;76.86
68274;SHT30;55104;47.356;19.448;2023-08-07T18:00:03;15.82;77.35
68274;SHT30;55104;47.356;19.448;2023-08-07T18:03:08;15.82;77.22
68274;SHT30;55104;47.356;19.448;2023-08-07T18:06:13;15.96;76.86
68274;SHT30;55104;47.356;19.448;2023-08-07T18:09:15;15.89;77.23
68274;SHT30;55104;47.356;19.448;2023-08-07T18:12:17;15.93;76.84
68274;SHT30;55104;47.356;19.448;2023-08-07T18:15:20;15.99;76.87
68274;SHT30;55104;47.356;19.448;2023-08-07T18:18:22;15.97;77.08
68274;SHT30;55104;47.356;19.448;2023-08-07T18:21:24;16.03;76.84
68274;SHT30;55104;47.356;19.448;2023-08-07T18:24:27;16.06;77.08
68274;SHT30;55104;47.356;19.448;2023-08-07T18:27:29;16.03;76.84
68274;SHT30;55104;47.356;19.448;2023-08-07T18:30:31;16.01;77.17
68274;SHT30;55104;47.356;19.448;2023-08-07T18:33:34;16.01;76.91
68274;SHT30;55104;47.356;19.448;2023-08-07T18:36:36;16.00;76.82
68274;SHT30;55104;47.356;19.448;2023-08-07T18:39:40;15.96;77.14
68274;SHT30;55104;47.356;19.448;2023-08-07T18:42:42;16.03;77.12
68274;SHT30;55104;47.356;19.448;2023-08-07T18:45:45;15.96;77.10
68274;SHT30;55104;47.356;19.448;2023-08-07T18:48:48;15.94;77.24
68274;SHT30;55104;47.356;19.448;2023-08-07T18:51:50;15.99;77.35
68274;SHT30;55104;47.356;19.448;2023-08-07T18:54:52;15.93;77.05
68274;SHT30;55104;47.356;19.448;2023-08-07T18:57:57;15.93;77.70
68274;SHT30;55104;47.356;19.448;2023-08-07T19:00:59;15.85;77.94
68274;SHT30;55104;47.356;19.448;2023-08-07T19:04:01;15.82;77.97
68274;SHT30;55104;47.356;19.448;2023-08-07T19:07:03;15.90;77.78